sensor_id;sensor_type;location;lat;lon;timestamp;P1;durP1;ratioP1;P2;durP2;ratioP2
12135;SDS011;6131;56.420;15.548;2022-07-29T00:00:53;2.27;;;1.20;;
12135;SDS011;6131;56.420;15.548;2022-07-29T00:03:19;6.07;;;1.40;;
12135;SDS011;6131;56.420;15.548;2022-07-29T00:05:45;4.90;;;1.50;;
12135;SDS011;6131;56.420;15.548;2022-07-29T00:08:11;2.93;;;1.43;;
12135;SDS011;6131;56.420;15.548;2022-07-29T00:10:37;2.17;;;1.10;;
12135;SDS011;6131;56.420;15.548;2022-07-29T00:13:03;4.37;;;1.40;;
12135;SDS011;6131;56.420;15.548;2022-07-29T00:15:29;3.77;;;1.27;;
12135;SDS011;6131;56.420;15.548;2022-07-29T00:17:55;4.27;;;2.03;;
12135;SDS011;6131;56.420;15.548;2022-07-29T00:20:21;8.13;;;4.63;;
12135;SDS011;6131;56.420;15.548;2022-07-29T00:22:47;8.77;;;4.93;;
12135;SDS011;6131;56.420;15.548;2022-07-29T00:25:13;3.80;;;2.17;;
12135;SDS011;6131;56.420;15.548;2022-07-29T00:27:39;3.23;;;1.40;;
12135;SDS011;6131;56.420;15.548;2022-07-29T00:30:05;2.47;;;1.43;;
12135;SDS011;6131;56.420;15.548;2022-07-29T00:32:32;3.00;;;1.30;;
12135;SDS011;6131;56.420;15.548;2022-07-29T00:34:58;3.00;;;1.30;;
12135;SDS011;6131;56.420;15.548;2022-07-29T00:37:43;4.20;;;1.40;;
12135;SDS011;6131;56.420;15.548;2022-07-29T00:40:09;4.27;;;1.40;;
12135;SDS011;6131;56.420;15.548;2022-07-29T00:42:42;3.83;;;1.40;;
12135;SDS011;6131;56.420;15.548;2022-07-29T00:45:08;2.90;;;1.30;;
12135;SDS011;6131;56.420;15.548;2022-07-29T00:47:34;1.53;;;1.10;;
12135;SDS011;6131;56.420;15.548;2022-07-29T00:50:00;6.13;;;1.13;;
12135;SDS011;6131;56.420;15.548;2022-07-29T00:52:26;2.93;;;1.20;;
12135;SDS011;6131;56.420;15.548;2022-07-29T00:54:52;2.10;;;1.00;;
12135;SDS011;6131;56.420;15.548;2022-07-29T00:57:18;4.73;;;1.27;;
12135;SDS011;6131;56.420;15.548;2022-07-29T00:59:45;3.73;;;1.13;;
12135;SDS011;6131;56.420;15.548;2022-07-29T01:02:11;3.13;;;1.40;;
12135;SDS011;6131;56.420;15.548;2022-07-29T01:04:37;3.00;;;1.10;;
12135;SDS011;6131;56.420;15.548;2022-07-29T01:07:04;4.03;;;1.10;;
12135;SDS011;6131;56.420;15.548;2022-07-29T01:09:31;4.33;;;1.30;;
12135;SDS011;6131;56.420;15.548;2022-07-29T01:11:57;4.60;;;1.23;;
12135;SDS011;6131;56.420;15.548;2022-07-29T01:14:24;1.80;;;1.20;;
12135;SDS011;6131;56.420;15.548;2022-07-29T01:21:50;4.77;;;1.30;;
12135;SDS011;6131;56.420;15.548;2022-07-29T01:24:29;4.17;;;1.30;;
12135;SDS011;6131;56.420;15.548;2022-07-29T01:27:41;1.20;;;1.10;;
12135;SDS011;6131;56.420;15.548;2022-07-29T01:29:46;2.83;;;1.10;;
12135;SDS011;6131;56.420;15.548;2022-07-29T01:32:15;3.30;;;1.13;;
12135;SDS011;6131;56.420;15.548;2022-07-29T01:34:48;1.70;;;1.20;;
12135;SDS011;6131;56.420;15.548;2022-07-29T01:37:19;4.97;;;1.40;;
12135;SDS011;6131;56.420;15.548;2022-07-29T01:39:48;5.60;;;1.17;;
12135;SDS011;6131;56.420;15.548;2022-07-29T01:42:18;2.97;;;1.10;;
12135;SDS011;6131;56.420;15.548;2022-07-29T01:47:58;1.33;;;1.10;;
12135;SDS011;6131;56.420;15.548;2022-07-29T01:50:23;3.77;;;1.50;;
12135;SDS011;6131;56.420;15.548;2022-07-29T01:52:52;1.63;;;1.07;;
12135;SDS011;6131;56.420;15.548;2022-07-29T01:55:20;5.27;;;1.43;;
12135;SDS011;6131;56.420;15.548;2022-07-29T01:57:48;2.60;;;1.50;;
12135;SDS011;6131;56.420;15.548;2022-07-29T02:00:14;1.70;;;1.10;;
12135;SDS011;6131;56.420;15.548;2022-07-29T02:02:42;1.73;;;1.10;;
12135;SDS011;6131;56.420;15.548;2022-07-29T02:05:09;3.63;;;1.10;;
12135;SDS011;6131;56.420;15.548;2022-07-29T02:07:36;2.30;;;1.27;;
12135;SDS011;6131;56.420;15.548;2022-07-29T02:10:02;3.77;;;1.20;;
12135;SDS011;6131;56.420;15.548;2022-07-29T02:12:29;3.77;;;1.10;;
12135;SDS011;6131;56.420;15.548;2022-07-29T02:14:56;1.80;;;1.27;;
12135;SDS011;6131;56.420;15.548;2022-07-29T02:17:25;3.87;;;1.30;;
12135;SDS011;6131;56.420;15.548;2022-07-29T02:19:52;3.07;;;1.10;;
12135;SDS011;6131;56.420;15.548;2022-07-29T02:22:19;3.73;;;1.37;;
12135;SDS011;6131;56.420;15.548;2022-07-29T02:24:45;3.20;;;1.13;;
12135;SDS011;6131;56.420;15.548;2022-07-29T02:27:11;1.57;;;0.97;;
12135;SDS011;6131;56.420;15.548;2022-07-29T02:29:38;3.73;;;1.10;;
12135;SDS011;6131;56.420;15.548;2022-07-29T02:32:05;2.33;;;1.27;;
12135;SDS011;6131;56.420;15.548;2022-07-29T02:34:32;5.53;;;1.57;;
12135;SDS011;6131;56.420;15.548;2022-07-29T02:36:59;5.43;;;1.47;;
12135;SDS011;6131;56.420;15.548;2022-07-29T02:39:25;4.87;;;1.70;;
12135;SDS011;6131;56.420;15.548;2022-07-29T02:42:03;4.07;;;1.43;;
12135;SDS011;6131;56.420;15.548;2022-07-29T02:44:31;3.30;;;1.63;;
12135;SDS011;6131;56.420;15.548;2022-07-29T02:49:49;3.23;;;1.60;;
12135;SDS011;6131;56.420;15.548;2022-07-29T02:52:29;3.53;;;1.70;;
12135;SDS011;6131;56.420;15.548;2022-07-29T02:54:58;3.17;;;1.70;;
12135;SDS011;6131;56.420;15.548;2022-07-29T02:57:30;2.87;;;1.53;;
12135;SDS011;6131;56.420;15.548;2022-07-29T02:59:59;2.83;;;1.37;;
12135;SDS011;6131;56.420;15.548;2022-07-29T03:02:29;1.50;;;1.10;;
12135;SDS011;6131;56.420;15.548;2022-07-29T03:04:56;2.17;;;1.47;;
12135;SDS011;6131;56.420;15.548;2022-07-29T03:07:23;4.60;;;1.40;;
12135;SDS011;6131;56.420;15.548;2022-07-29T03:09:49;2.10;;;1.50;;
12135;SDS011;6131;56.420;15.548;2022-07-29T03:12:16;3.97;;;1.60;;
12135;SDS011;6131;56.420;15.548;2022-07-29T03:14:43;1.83;;;1.43;;
12135;SDS011;6131;56.420;15.548;2022-07-29T03:17:09;4.70;;;1.93;;
12135;SDS011;6131;56.420;15.548;2022-07-29T03:19:35;3.50;;;1.50;;
12135;SDS011;6131;56.420;15.548;2022-07-29T03:22:02;4.23;;;1.80;;
12135;SDS011;6131;56.420;15.548;2022-07-29T03:24:29;5.77;;;1.70;;
12135;SDS011;6131;56.420;15.548;2022-07-29T03:26:56;2.60;;;1.70;;
12135;SDS011;6131;56.420;15.548;2022-07-29T03:29:22;6.17;;;1.80;;
12135;SDS011;6131;56.420;15.548;2022-07-29T03:31:49;3.10;;;1.60;;
12135;SDS011;6131;56.420;15.548;2022-07-29T03:34:15;6.00;;;1.60;;
12135;SDS011;6131;56.420;15.548;2022-07-29T03:36:41;3.87;;;1.50;;
12135;SDS011;6131;56.420;15.548;2022-07-29T03:39:07;2.70;;;1.50;;
12135;SDS011;6131;56.420;15.548;2022-07-29T03:41:35;1.53;;;1.40;;
12135;SDS011;6131;56.420;15.548;2022-07-29T03:44:01;2.43;;;1.47;;
12135;SDS011;6131;56.420;15.548;2022-07-29T03:46:28;2.90;;;1.50;;
12135;SDS011;6131;56.420;15.548;2022-07-29T03:48:55;2.73;;;1.60;;
12135;SDS011;6131;56.420;15.548;2022-07-29T03:51:24;1.77;;;1.30;;
12135;SDS011;6131;56.420;15.548;2022-07-29T03:53:51;2.23;;;1.40;;
12135;SDS011;6131;56.420;15.548;2022-07-29T03:56:18;1.60;;;1.30;;
12135;SDS011;6131;56.420;15.548;2022-07-29T03:58:46;1.60;;;1.30;;
12135;SDS011;6131;56.420;15.548;2022-07-29T04:01:13;2.50;;;1.30;;
12135;SDS011;6131;56.420;15.548;2022-07-29T04:03:39;3.20;;;1.70;;
12135;SDS011;6131;56.420;15.548;2022-07-29T04:06:06;2.37;;;1.20;;
12135;SDS011;6131;56.420;15.548;2022-07-29T04:08:33;2.77;;;1.40;;
12135;SDS011;6131;56.420;15.548;2022-07-29T04:10:59;4.03;;;1.70;;
12135;SDS011;6131;56.420;15.548;2022-07-29T04:13:25;2.33;;;1.30;;
12135;SDS011;6131;56.420;15.548;2022-07-29T04:15:51;2.13;;;1.30;;
12135;SDS011;6131;56.420;15.548;2022-07-29T04:18:17;1.40;;;1.30;;
12135;SDS011;6131;56.420;15.548;2022-07-29T04:20:44;1.30;;;1.20;;
12135;SDS011;6131;56.420;15.548;2022-07-29T04:23:10;5.27;;;1.30;;
12135;SDS011;6131;56.420;15.548;2022-07-29T04:25:39;2.03;;;1.27;;
12135;SDS011;6131;56.420;15.548;2022-07-29T04:28:05;1.80;;;1.37;;
12135;SDS011;6131;56.420;15.548;2022-07-29T04:30:32;1.30;;;1.20;;
12135;SDS011;6131;56.420;15.548;2022-07-29T04:32:58;1.40;;;1.27;;
12135;SDS011;6131;56.420;15.548;2022-07-29T04:35:25;3.00;;;1.30;;
12135;SDS011;6131;56.420;15.548;2022-07-29T04:37:51;2.60;;;1.30;;
12135;SDS011;6131;56.420;15.548;2022-07-29T04:40:17;1.30;;;1.17;;
12135;SDS011;6131;56.420;15.548;2022-07-29T04:42:43;2.13;;;1.33;;
12135;SDS011;6131;56.420;15.548;2022-07-29T04:45:09;2.07;;;1.27;;
12135;SDS011;6131;56.420;15.548;2022-07-29T04:47:35;4.43;;;1.67;;
12135;SDS011;6131;56.420;15.548;2022-07-29T04:50:02;1.90;;;1.47;;
12135;SDS011;6131;56.420;15.548;2022-07-29T04:52:28;1.40;;;1.30;;
12135;SDS011;6131;56.420;15.548;2022-07-29T04:54:54;1.33;;;1.23;;
12135;SDS011;6131;56.420;15.548;2022-07-29T04:57:20;1.63;;;1.40;;
12135;SDS011;6131;56.420;15.548;2022-07-29T04:59:46;1.53;;;1.20;;
12135;SDS011;6131;56.420;15.548;2022-07-29T05:02:12;1.50;;;1.20;;
12135;SDS011;6131;56.420;15.548;2022-07-29T05:04:38;1.30;;;1.20;;
12135;SDS011;6131;56.420;15.548;2022-07-29T05:07:04;2.33;;;1.10;;
12135;SDS011;6131;56.420;15.548;2022-07-29T05:09:30;1.67;;;1.30;;
12135;SDS011;6131;56.420;15.548;2022-07-29T05:11:57;1.40;;;1.23;;
12135;SDS011;6131;56.420;15.548;2022-07-29T05:14:23;4.27;;;1.40;;
12135;SDS011;6131;56.420;15.548;2022-07-29T05:16:49;2.50;;;1.40;;
12135;SDS011;6131;56.420;15.548;2022-07-29T05:19:16;3.70;;;1.60;;
12135;SDS011;6131;56.420;15.548;2022-07-29T05:21:42;3.00;;;1.80;;
12135;SDS011;6131;56.420;15.548;2022-07-29T05:24:08;5.27;;;1.97;;
12135;SDS011;6131;56.420;15.548;2022-07-29T05:26:34;2.37;;;1.60;;
12135;SDS011;6131;56.420;15.548;2022-07-29T05:29:00;6.07;;;2.10;;
12135;SDS011;6131;56.420;15.548;2022-07-29T05:31:26;4.57;;;2.10;;
12135;SDS011;6131;56.420;15.548;2022-07-29T05:33:52;4.60;;;1.97;;
12135;SDS011;6131;56.420;15.548;2022-07-29T05:36:18;5.73;;;2.17;;
12135;SDS011;6131;56.420;15.548;2022-07-29T05:38:44;3.60;;;1.87;;
12135;SDS011;6131;56.420;15.548;2022-07-29T05:41:10;4.43;;;2.30;;
12135;SDS011;6131;56.420;15.548;2022-07-29T05:43:36;4.77;;;1.90;;
12135;SDS011;6131;56.420;15.548;2022-07-29T05:46:02;4.47;;;1.93;;
12135;SDS011;6131;56.420;15.548;2022-07-29T05:48:28;2.80;;;1.87;;
12135;SDS011;6131;56.420;15.548;2022-07-29T05:50:54;2.27;;;1.53;;
12135;SDS011;6131;56.420;15.548;2022-07-29T05:53:20;4.77;;;1.93;;
12135;SDS011;6131;56.420;15.548;2022-07-29T05:55:47;3.40;;;1.90;;
12135;SDS011;6131;56.420;15.548;2022-07-29T05:58:13;6.77;;;1.93;;
12135;SDS011;6131;56.420;15.548;2022-07-29T06:00:39;3.77;;;1.80;;
12135;SDS011;6131;56.420;15.548;2022-07-29T06:03:05;2.57;;;1.50;;
12135;SDS011;6131;56.420;15.548;2022-07-29T06:05:31;3.57;;;1.50;;
12135;SDS011;6131;56.420;15.548;2022-07-29T06:07:57;4.13;;;2.00;;
12135;SDS011;6131;56.420;15.548;2022-07-29T06:10:23;3.30;;;1.73;;
12135;SDS011;6131;56.420;15.548;2022-07-29T06:12:49;3.27;;;1.63;;
12135;SDS011;6131;56.420;15.548;2022-07-29T06:15:15;5.63;;;1.67;;
12135;SDS011;6131;56.420;15.548;2022-07-29T06:17:41;3.60;;;1.73;;
12135;SDS011;6131;56.420;15.548;2022-07-29T06:20:08;5.57;;;1.70;;
12135;SDS011;6131;56.420;15.548;2022-07-29T06:22:34;3.90;;;1.83;;
12135;SDS011;6131;56.420;15.548;2022-07-29T06:25:00;4.07;;;1.93;;
12135;SDS011;6131;56.420;15.548;2022-07-29T06:27:26;3.33;;;1.40;;
12135;SDS011;6131;56.420;15.548;2022-07-29T06:29:52;4.80;;;1.50;;
12135;SDS011;6131;56.420;15.548;2022-07-29T06:32:19;4.43;;;1.47;;
12135;SDS011;6131;56.420;15.548;2022-07-29T06:34:45;5.00;;;1.50;;
12135;SDS011;6131;56.420;15.548;2022-07-29T06:37:11;6.63;;;1.50;;
12135;SDS011;6131;56.420;15.548;2022-07-29T06:39:37;3.17;;;1.50;;
12135;SDS011;6131;56.420;15.548;2022-07-29T06:42:06;4.07;;;1.27;;
12135;SDS011;6131;56.420;15.548;2022-07-29T06:44:32;2.73;;;1.40;;
12135;SDS011;6131;56.420;15.548;2022-07-29T06:46:59;4.00;;;1.20;;
12135;SDS011;6131;56.420;15.548;2022-07-29T06:49:25;3.90;;;1.30;;
12135;SDS011;6131;56.420;15.548;2022-07-29T06:51:52;6.07;;;1.40;;
12135;SDS011;6131;56.420;15.548;2022-07-29T06:54:18;2.70;;;1.20;;
12135;SDS011;6131;56.420;15.548;2022-07-29T06:56:44;4.13;;;1.30;;
12135;SDS011;6131;56.420;15.548;2022-07-29T06:59:11;3.40;;;1.23;;
12135;SDS011;6131;56.420;15.548;2022-07-29T07:01:38;4.07;;;1.20;;
12135;SDS011;6131;56.420;15.548;2022-07-29T07:04:04;3.90;;;1.20;;
12135;SDS011;6131;56.420;15.548;2022-07-29T07:06:30;2.60;;;1.30;;
12135;SDS011;6131;56.420;15.548;2022-07-29T07:08:56;3.47;;;1.30;;
12135;SDS011;6131;56.420;15.548;2022-07-29T07:11:22;4.53;;;1.17;;
12135;SDS011;6131;56.420;15.548;2022-07-29T07:13:48;4.70;;;1.10;;
12135;SDS011;6131;56.420;15.548;2022-07-29T07:16:14;3.27;;;1.30;;
12135;SDS011;6131;56.420;15.548;2022-07-29T07:18:40;3.03;;;1.17;;
12135;SDS011;6131;56.420;15.548;2022-07-29T07:21:07;3.20;;;1.27;;
12135;SDS011;6131;56.420;15.548;2022-07-29T07:23:33;3.90;;;1.30;;
12135;SDS011;6131;56.420;15.548;2022-07-29T07:25:59;3.17;;;1.10;;
12135;SDS011;6131;56.420;15.548;2022-07-29T07:28:25;1.90;;;1.10;;
12135;SDS011;6131;56.420;15.548;2022-07-29T07:30:51;3.73;;;1.10;;
12135;SDS011;6131;56.420;15.548;2022-07-29T07:33:17;2.00;;;1.10;;
12135;SDS011;6131;56.420;15.548;2022-07-29T07:35:43;3.90;;;1.13;;
12135;SDS011;6131;56.420;15.548;2022-07-29T07:38:09;3.47;;;1.20;;
12135;SDS011;6131;56.420;15.548;2022-07-29T07:40:35;3.07;;;1.43;;
12135;SDS011;6131;56.420;15.548;2022-07-29T07:43:02;2.20;;;1.17;;
12135;SDS011;6131;56.420;15.548;2022-07-29T07:45:28;2.60;;;1.07;;
12135;SDS011;6131;56.420;15.548;2022-07-29T07:47:54;3.87;;;1.10;;
12135;SDS011;6131;56.420;15.548;2022-07-29T07:50:20;4.23;;;1.43;;
12135;SDS011;6131;56.420;15.548;2022-07-29T07:52:46;3.53;;;1.20;;
12135;SDS011;6131;56.420;15.548;2022-07-29T07:55:12;3.93;;;1.27;;
12135;SDS011;6131;56.420;15.548;2022-07-29T07:57:38;2.50;;;1.20;;
12135;SDS011;6131;56.420;15.548;2022-07-29T08:00:05;2.97;;;1.10;;
12135;SDS011;6131;56.420;15.548;2022-07-29T08:02:31;3.53;;;1.10;;
12135;SDS011;6131;56.420;15.548;2022-07-29T08:04:57;3.27;;;1.10;;
12135;SDS011;6131;56.420;15.548;2022-07-29T08:07:24;2.33;;;1.17;;
12135;SDS011;6131;56.420;15.548;2022-07-29T08:09:50;2.60;;;1.07;;
12135;SDS011;6131;56.420;15.548;2022-07-29T08:12:16;3.33;;;1.20;;
12135;SDS011;6131;56.420;15.548;2022-07-29T08:14:42;2.07;;;1.10;;
12135;SDS011;6131;56.420;15.548;2022-07-29T08:17:08;2.90;;;1.30;;
12135;SDS011;6131;56.420;15.548;2022-07-29T08:19:34;2.83;;;1.13;;
12135;SDS011;6131;56.420;15.548;2022-07-29T08:22:01;1.38;;;1.00;;
12135;SDS011;6131;56.420;15.548;2022-07-29T08:24:27;2.88;;;0.90;;
12135;SDS011;6131;56.420;15.548;2022-07-29T08:27:12;3.28;;;1.20;;
12135;SDS011;6131;56.420;15.548;2022-07-29T08:29:38;1.55;;;1.05;;
12135;SDS011;6131;56.420;15.548;2022-07-29T08:32:04;1.65;;;0.90;;
12135;SDS011;6131;56.420;15.548;2022-07-29T08:34:31;2.58;;;1.10;;
12135;SDS011;6131;56.420;15.548;2022-07-29T08:36:57;3.10;;;0.90;;
12135;SDS011;6131;56.420;15.548;2022-07-29T08:39:23;1.90;;;1.05;;
12135;SDS011;6131;56.420;15.548;2022-07-29T08:41:49;4.38;;;1.10;;
12135;SDS011;6131;56.420;15.548;2022-07-29T08:44:16;2.65;;;1.00;;
12135;SDS011;6131;56.420;15.548;2022-07-29T08:46:42;1.80;;;0.90;;
12135;SDS011;6131;56.420;15.548;2022-07-29T08:49:08;1.55;;;0.80;;
12135;SDS011;6131;56.420;15.548;2022-07-29T08:51:35;2.10;;;0.80;;
12135;SDS011;6131;56.420;15.548;2022-07-29T08:54:02;2.35;;;0.93;;
12135;SDS011;6131;56.420;15.548;2022-07-29T08:56:28;2.00;;;1.13;;
12135;SDS011;6131;56.420;15.548;2022-07-29T08:58:54;1.38;;;1.00;;
12135;SDS011;6131;56.420;15.548;2022-07-29T09:01:22;1.90;;;0.80;;
12135;SDS011;6131;56.420;15.548;2022-07-29T09:03:49;1.10;;;0.85;;
12135;SDS011;6131;56.420;15.548;2022-07-29T09:06:17;2.63;;;0.90;;
12135;SDS011;6131;56.420;15.548;2022-07-29T09:08:44;0.98;;;0.77;;
12135;SDS011;6131;56.420;15.548;2022-07-29T09:11:11;1.17;;;0.70;;
12135;SDS011;6131;56.420;15.548;2022-07-29T09:13:37;1.90;;;0.82;;
12135;SDS011;6131;56.420;15.548;2022-07-29T09:16:03;2.90;;;0.80;;
12135;SDS011;6131;56.420;15.548;2022-07-29T09:21:01;2.85;;;1.02;;
12135;SDS011;6131;56.420;15.548;2022-07-29T09:24:06;2.05;;;0.82;;
12135;SDS011;6131;56.420;15.548;2022-07-29T09:26:42;1.67;;;0.90;;
12135;SDS011;6131;56.420;15.548;2022-07-29T09:29:13;1.52;;;0.80;;
12135;SDS011;6131;56.420;15.548;2022-07-29T09:31:40;1.55;;;0.65;;
12135;SDS011;6131;56.420;15.548;2022-07-29T09:34:06;2.92;;;0.80;;
12135;SDS011;6131;56.420;15.548;2022-07-29T09:36:38;2.25;;;0.80;;
12135;SDS011;6131;56.420;15.548;2022-07-29T09:39:04;2.53;;;0.65;;
12135;SDS011;6131;56.420;15.548;2022-07-29T09:41:30;2.17;;;0.80;;
12135;SDS011;6131;56.420;15.548;2022-07-29T09:44:09;1.45;;;0.77;;
12135;SDS011;6131;56.420;15.548;2022-07-29T09:46:35;2.78;;;0.88;;
12135;SDS011;6131;56.420;15.548;2022-07-29T09:49:11;1.20;;;0.70;;
12135;SDS011;6131;56.420;15.548;2022-07-29T09:51:38;1.00;;;0.68;;
12135;SDS011;6131;56.420;15.548;2022-07-29T09:54:24;2.08;;;0.80;;
12135;SDS011;6131;56.420;15.548;2022-07-29T09:56:53;2.15;;;0.70;;
12135;SDS011;6131;56.420;15.548;2022-07-29T09:59:20;1.60;;;0.80;;
12135;SDS011;6131;56.420;15.548;2022-07-29T10:01:49;1.55;;;0.70;;
12135;SDS011;6131;56.420;15.548;2022-07-29T10:04:15;2.15;;;0.70;;
12135;SDS011;6131;56.420;15.548;2022-07-29T10:06:58;1.83;;;0.90;;
12135;SDS011;6131;56.420;15.548;2022-07-29T10:09:24;1.50;;;0.77;;
12135;SDS011;6131;56.420;15.548;2022-07-29T10:14:29;1.30;;;0.80;;
12135;SDS011;6131;56.420;15.548;2022-07-29T10:16:56;1.65;;;0.68;;
12135;SDS011;6131;56.420;15.548;2022-07-29T10:19:22;2.58;;;0.73;;
12135;SDS011;6131;56.420;15.548;2022-07-29T10:21:49;1.38;;;0.70;;
12135;SDS011;6131;56.420;15.548;2022-07-29T10:24:15;0.73;;;0.60;;
12135;SDS011;6131;56.420;15.548;2022-07-29T10:26:41;1.70;;;0.55;;
12135;SDS011;6131;56.420;15.548;2022-07-29T10:29:07;0.93;;;0.60;;
12135;SDS011;6131;56.420;15.548;2022-07-29T10:31:41;1.00;;;0.60;;
12135;SDS011;6131;56.420;15.548;2022-07-29T10:34:22;6.63;;;0.82;;
12135;SDS011;6131;56.420;15.548;2022-07-29T10:39:50;3.17;;;0.77;;
12135;SDS011;6131;56.420;15.548;2022-07-29T10:42:20;0.95;;;0.60;;
12135;SDS011;6131;56.420;15.548;2022-07-29T10:44:49;0.70;;;0.40;;
12135;SDS011;6131;56.420;15.548;2022-07-29T10:47:25;0.80;;;0.60;;
12135;SDS011;6131;56.420;15.548;2022-07-29T10:50:02;1.85;;;0.50;;
12135;SDS011;6131;56.420;15.548;2022-07-29T10:55:30;1.13;;;0.60;;
12135;SDS011;6131;56.420;15.548;2022-07-29T11:00:53;0.80;;;0.50;;
12135;SDS011;6131;56.420;15.548;2022-07-29T11:06:04;1.35;;;0.50;;
12135;SDS011;6131;56.420;15.548;2022-07-29T11:08:30;0.93;;;0.50;;
12135;SDS011;6131;56.420;15.548;2022-07-29T11:16:11;1.13;;;0.70;;
12135;SDS011;6131;56.420;15.548;2022-07-29T11:19:20;0.65;;;0.43;;
12135;SDS011;6131;56.420;15.548;2022-07-29T11:21:36;1.90;;;0.60;;
12135;SDS011;6131;56.420;15.548;2022-07-29T11:24:13;1.85;;;0.70;;
12135;SDS011;6131;56.420;15.548;2022-07-29T11:26:39;0.82;;;0.60;;
12135;SDS011;6131;56.420;15.548;2022-07-29T11:29:08;1.60;;;0.70;;
12135;SDS011;6131;56.420;15.548;2022-07-29T11:31:43;1.45;;;0.80;;
12135;SDS011;6131;56.420;15.548;2022-07-29T11:34:25;1.75;;;0.70;;
12135;SDS011;6131;56.420;15.548;2022-07-29T11:39:38;2.08;;;0.65;;
12135;SDS011;6131;56.420;15.548;2022-07-29T11:45:02;2.15;;;0.90;;
12135;SDS011;6131;56.420;15.548;2022-07-29T11:47:32;2.78;;;0.80;;
12135;SDS011;6131;56.420;15.548;2022-07-29T11:50:00;1.55;;;0.80;;
12135;SDS011;6131;56.420;15.548;2022-07-29T11:52:34;1.33;;;0.70;;
12135;SDS011;6131;56.420;15.548;2022-07-29T11:55:02;1.10;;;0.80;;
12135;SDS011;6131;56.420;15.548;2022-07-29T11:57:29;2.38;;;0.70;;
12135;SDS011;6131;56.420;15.548;2022-07-29T11:59:55;1.58;;;0.80;;
12135;SDS011;6131;56.420;15.548;2022-07-29T12:02:23;1.55;;;0.80;;
12135;SDS011;6131;56.420;15.548;2022-07-29T12:04:53;1.80;;;0.77;;
12135;SDS011;6131;56.420;15.548;2022-07-29T12:07:32;1.40;;;0.60;;
12135;SDS011;6131;56.420;15.548;2022-07-29T12:09:59;2.05;;;0.60;;
12135;SDS011;6131;56.420;15.548;2022-07-29T12:12:25;0.90;;;0.63;;
12135;SDS011;6131;56.420;15.548;2022-07-29T12:14:51;1.73;;;0.70;;
12135;SDS011;6131;56.420;15.548;2022-07-29T12:19:53;2.15;;;0.73;;
12135;SDS011;6131;56.420;15.548;2022-07-29T12:22:26;1.15;;;0.60;;
12135;SDS011;6131;56.420;15.548;2022-07-29T12:24:52;1.08;;;0.60;;
12135;SDS011;6131;56.420;15.548;2022-07-29T12:27:19;0.75;;;0.57;;
12135;SDS011;6131;56.420;15.548;2022-07-29T12:29:54;1.45;;;0.60;;
12135;SDS011;6131;56.420;15.548;2022-07-29T12:32:21;1.13;;;0.60;;
12135;SDS011;6131;56.420;15.548;2022-07-29T12:34:47;1.15;;;0.60;;
12135;SDS011;6131;56.420;15.548;2022-07-29T12:37:13;1.90;;;0.65;;
12135;SDS011;6131;56.420;15.548;2022-07-29T12:39:39;1.02;;;0.70;;
12135;SDS011;6131;56.420;15.548;2022-07-29T12:42:12;2.00;;;0.80;;
12135;SDS011;6131;56.420;15.548;2022-07-29T12:44:48;5.22;;;0.90;;
12135;SDS011;6131;56.420;15.548;2022-07-29T12:47:15;1.50;;;0.60;;
12135;SDS011;6131;56.420;15.548;2022-07-29T12:49:43;2.15;;;0.65;;
12135;SDS011;6131;56.420;15.548;2022-07-29T12:54:51;1.95;;;0.70;;
12135;SDS011;6131;56.420;15.548;2022-07-29T12:57:17;1.63;;;0.90;;
12135;SDS011;6131;56.420;15.548;2022-07-29T12:59:43;0.80;;;0.60;;
12135;SDS011;6131;56.420;15.548;2022-07-29T13:02:20;1.00;;;0.80;;
12135;SDS011;6131;56.420;15.548;2022-07-29T13:04:56;0.93;;;0.70;;
12135;SDS011;6131;56.420;15.548;2022-07-29T13:07:26;1.83;;;0.77;;
12135;SDS011;6131;56.420;15.548;2022-07-29T13:09:54;1.42;;;0.77;;
12135;SDS011;6131;56.420;15.548;2022-07-29T13:12:20;1.35;;;0.60;;
12135;SDS011;6131;56.420;15.548;2022-07-29T13:14:46;1.30;;;0.82;;
12135;SDS011;6131;56.420;15.548;2022-07-29T13:17:20;1.50;;;0.70;;
12135;SDS011;6131;56.420;15.548;2022-07-29T13:19:53;0.88;;;0.70;;
12135;SDS011;6131;56.420;15.548;2022-07-29T13:22:23;3.40;;;0.80;;
12135;SDS011;6131;56.420;15.548;2022-07-29T13:27:16;1.67;;;0.70;;
12135;SDS011;6131;56.420;15.548;2022-07-29T13:29:42;1.75;;;0.70;;
12135;SDS011;6131;56.420;15.548;2022-07-29T13:32:09;1.35;;;0.60;;
12135;SDS011;6131;56.420;15.548;2022-07-29T13:34:35;1.42;;;0.88;;
12135;SDS011;6131;56.420;15.548;2022-07-29T13:37:01;0.70;;;0.52;;
12135;SDS011;6131;56.420;15.548;2022-07-29T13:39:27;1.52;;;0.57;;
12135;SDS011;6131;56.420;15.548;2022-07-29T13:41:53;1.02;;;0.57;;
12135;SDS011;6131;56.420;15.548;2022-07-29T13:44:19;1.75;;;0.82;;
12135;SDS011;6131;56.420;15.548;2022-07-29T13:46:45;1.70;;;0.50;;
12135;SDS011;6131;56.420;15.548;2022-07-29T13:49:11;1.67;;;0.77;;
12135;SDS011;6131;56.420;15.548;2022-07-29T13:51:37;1.85;;;0.60;;
12135;SDS011;6131;56.420;15.548;2022-07-29T13:54:03;1.48;;;0.63;;
12135;SDS011;6131;56.420;15.548;2022-07-29T13:56:29;1.83;;;0.70;;
12135;SDS011;6131;56.420;15.548;2022-07-29T13:58:56;1.13;;;0.68;;
12135;SDS011;6131;56.420;15.548;2022-07-29T14:01:22;1.35;;;0.60;;
12135;SDS011;6131;56.420;15.548;2022-07-29T14:03:48;1.27;;;0.57;;
12135;SDS011;6131;56.420;15.548;2022-07-29T14:06:14;0.80;;;0.55;;
12135;SDS011;6131;56.420;15.548;2022-07-29T14:08:40;1.23;;;0.60;;
12135;SDS011;6131;56.420;15.548;2022-07-29T14:11:06;1.20;;;0.60;;
12135;SDS011;6131;56.420;15.548;2022-07-29T14:13:32;1.52;;;0.63;;
12135;SDS011;6131;56.420;15.548;2022-07-29T14:15:58;0.98;;;0.60;;
12135;SDS011;6131;56.420;15.548;2022-07-29T14:18:24;1.15;;;0.50;;
12135;SDS011;6131;56.420;15.548;2022-07-29T14:20:50;1.00;;;0.57;;
12135;SDS011;6131;56.420;15.548;2022-07-29T14:23:17;0.63;;;0.60;;
12135;SDS011;6131;56.420;15.548;2022-07-29T14:25:43;0.77;;;0.50;;
12135;SDS011;6131;56.420;15.548;2022-07-29T14:28:09;1.10;;;0.50;;
12135;SDS011;6131;56.420;15.548;2022-07-29T14:30:35;0.70;;;0.52;;
12135;SDS011;6131;56.420;15.548;2022-07-29T14:33:01;1.38;;;0.73;;
12135;SDS011;6131;56.420;15.548;2022-07-29T14:35:28;1.30;;;0.68;;
12135;SDS011;6131;56.420;15.548;2022-07-29T14:37:54;1.92;;;0.70;;
12135;SDS011;6131;56.420;15.548;2022-07-29T14:40:20;0.95;;;0.77;;
12135;SDS011;6131;56.420;15.548;2022-07-29T14:42:46;0.70;;;0.60;;
12135;SDS011;6131;56.420;15.548;2022-07-29T14:45:12;0.85;;;0.60;;
12135;SDS011;6131;56.420;15.548;2022-07-29T14:47:38;1.92;;;0.73;;
12135;SDS011;6131;56.420;15.548;2022-07-29T14:50:04;1.13;;;0.63;;
12135;SDS011;6131;56.420;15.548;2022-07-29T14:52:31;0.85;;;0.70;;
12135;SDS011;6131;56.420;15.548;2022-07-29T14:54:57;1.77;;;0.68;;
12135;SDS011;6131;56.420;15.548;2022-07-29T14:57:23;0.80;;;0.70;;
12135;SDS011;6131;56.420;15.548;2022-07-29T14:59:49;1.00;;;0.50;;
12135;SDS011;6131;56.420;15.548;2022-07-29T15:02:15;0.80;;;0.50;;
12135;SDS011;6131;56.420;15.548;2022-07-29T15:04:41;1.35;;;0.65;;
12135;SDS011;6131;56.420;15.548;2022-07-29T15:07:09;0.80;;;0.70;;
12135;SDS011;6131;56.420;15.548;2022-07-29T15:09:35;1.20;;;0.60;;
12135;SDS011;6131;56.420;15.548;2022-07-29T15:12:01;0.95;;;0.73;;
12135;SDS011;6131;56.420;15.548;2022-07-29T15:14:27;0.70;;;0.60;;
12135;SDS011;6131;56.420;15.548;2022-07-29T15:16:54;0.70;;;0.70;;
12135;SDS011;6131;56.420;15.548;2022-07-29T15:19:20;0.82;;;0.60;;
12135;SDS011;6131;56.420;15.548;2022-07-29T15:21:46;1.65;;;0.70;;
12135;SDS011;6131;56.420;15.548;2022-07-29T15:24:12;1.95;;;0.70;;
12135;SDS011;6131;56.420;15.548;2022-07-29T15:26:38;1.23;;;0.70;;
12135;SDS011;6131;56.420;15.548;2022-07-29T15:29:04;1.17;;;0.80;;
12135;SDS011;6131;56.420;15.548;2022-07-29T15:31:30;0.77;;;0.55;;
12135;SDS011;6131;56.420;15.548;2022-07-29T15:33:56;2.22;;;0.70;;
12135;SDS011;6131;56.420;15.548;2022-07-29T15:36:22;1.35;;;0.60;;